sensor_id;sensor_type;location;lat;lon;timestamp;pressure;altitude;pressure_sealevel;temperature;humidity
56992;BME280;42885;49.754;18.636;2024-03-25T00:01:53;96967.31;;;8.29;73.70
56992;BME280;42885;49.754;18.636;2024-03-25T00:04:42;96969.89;;;8.23;73.98
56992;BME280;42885;49.754;18.636;2024-03-25T00:07:31;96963.12;;;8.20;74.39
56992;BME280;42885;49.754;18.636;2024-03-25T00:10:21;96966.05;;;8.40;73.41
56992;BME280;42885;49.754;18.636;2024-03-25T00:13:10;96962.58;;;8.34;73.79
56992;BME280;42885;49.754;18.636;2024-03-25T00:16:00;96966.20;;;8.44;73.94
56992;BME280;42885;49.754;18.636;2024-03-25T00:18:50;96960.16;;;8.19;74.82
56992;BME280;42885;49.754;18.636;2024-03-25T00:21:39;96967.56;;;8.12;75.86
56992;BME280;42885;49.754;18.636;2024-03-25T00:24:30;96958.28;;;8.03;76.55
56992;BME280;42885;49.754;18.636;2024-03-25T00:27:20;96960.92;;;8.08;76.32
56992;BME280;42885;49.754;18.636;2024-03-25T00:30:09;96960.27;;;7.99;76.56
56992;BME280;42885;49.754;18.636;2024-03-25T00:32:58;96950.47;;;8.03;76.86
56992;BME280;42885;49.754;18.636;2024-03-25T00:35:47;96955.13;;;7.92;77.27
56992;BME280;42885;49.754;18.636;2024-03-25T00:38:37;96946.34;;;7.87;77.59
56992;BME280;42885;49.754;18.636;2024-03-25T00:41:25;96956.77;;;7.87;77.57
56992;BME280;42885;49.754;18.636;2024-03-25T00:44:14;96959.17;;;7.96;77.07
56992;BME280;42885;49.754;18.636;2024-03-25T00:47:04;96957.84;;;7.90;76.70
56992;BME280;42885;49.754;18.636;2024-03-25T00:49:52;96951.81;;;7.90;76.31
56992;BME280;42885;49.754;18.636;2024-03-25T00:52:41;96944.09;;;7.88;76.58
56992;BME280;42885;49.754;18.636;2024-03-25T00:55:30;96941.84;;;7.89;75.67
56992;BME280;42885;49.754;18.636;2024-03-25T00:58:20;96941.82;;;7.83;75.88
56992;BME280;42885;49.754;18.636;2024-03-25T01:01:08;96942.93;;;7.74;75.83
56992;BME280;42885;49.754;18.636;2024-03-25T01:03:57;96938.44;;;7.76;75.66
56992;BME280;42885;49.754;18.636;2024-03-25T01:06:46;96931.24;;;7.79;75.73
56992;BME280;42885;49.754;18.636;2024-03-25T01:09:35;96932.84;;;7.69;75.44
56992;BME280;42885;49.754;18.636;2024-03-25T01:12:25;96932.93;;;7.80;74.50
56992;BME280;42885;49.754;18.636;2024-03-25T01:15:14;96927.43;;;7.72;74.43
56992;BME280;42885;49.754;18.636;2024-03-25T01:18:03;96922.25;;;7.78;74.57
56992;BME280;42885;49.754;18.636;2024-03-25T01:20:51;96929.16;;;7.66;74.75
56992;BME280;42885;49.754;18.636;2024-03-25T01:23:40;96929.52;;;7.67;74.93
56992;BME280;42885;49.754;18.636;2024-03-25T01:26:29;96925.97;;;7.68;74.46
56992;BME280;42885;49.754;18.636;2024-03-25T01:29:18;96926.75;;;7.63;74.61
56992;BME280;42885;49.754;18.636;2024-03-25T01:32:07;96925.25;;;7.66;74.30
56992;BME280;42885;49.754;18.636;2024-03-25T01:34:56;96925.70;;;7.65;74.54
56992;BME280;42885;49.754;18.636;2024-03-25T01:37:46;96923.39;;;7.55;74.90
56992;BME280;42885;49.754;18.636;2024-03-25T01:40:36;96924.34;;;7.54;74.62
56992;BME280;42885;49.754;18.636;2024-03-25T01:43:26;96925.45;;;7.63;74.49
56992;BME280;42885;49.754;18.636;2024-03-25T01:46:15;96924.14;;;7.63;73.60
56992;BME280;42885;49.754;18.636;2024-03-25T01:49:05;96920.23;;;7.63;73.64
56992;BME280;42885;49.754;18.636;2024-03-25T01:51:55;96919.48;;;7.55;73.46
56992;BME280;42885;49.754;18.636;2024-03-25T01:54:43;96922.84;;;7.63;73.37
56992;BME280;42885;49.754;18.636;2024-03-25T01:57:33;96928.38;;;7.58;73.80
56992;BME280;42885;49.754;18.636;2024-03-25T02:00:24;96915.94;;;7.75;73.06
56992;BME280;42885;49.754;18.636;2024-03-25T02:03:16;96920.01;;;7.79;72.69
56992;BME280;42885;49.754;18.636;2024-03-25T02:06:09;96910.66;;;7.82;72.59
56992;BME280;42885;49.754;18.636;2024-03-25T02:08:57;96915.39;;;7.77;73.14
56992;BME280;42885;49.754;18.636;2024-03-25T02:11:47;96910.80;;;7.80;72.79
56992;BME280;42885;49.754;18.636;2024-03-25T02:14:36;96915.81;;;7.70;73.48
56992;BME280;42885;49.754;18.636;2024-03-25T02:17:26;96907.44;;;7.78;73.12
56992;BME280;42885;49.754;18.636;2024-03-25T02:20:15;96910.92;;;7.84;72.96
56992;BME280;42885;49.754;18.636;2024-03-25T02:23:04;96912.66;;;7.78;73.66
56992;BME280;42885;49.754;18.636;2024-03-25T02:25:53;96920.53;;;7.71;74.88
56992;BME280;42885;49.754;18.636;2024-03-25T02:28:42;96927.72;;;7.80;75.95
56992;BME280;42885;49.754;18.636;2024-03-25T02:31:31;96927.27;;;7.68;77.91
56992;BME280;42885;49.754;18.636;2024-03-25T02:34:20;96933.58;;;7.58;80.32
56992;BME280;42885;49.754;18.636;2024-03-25T02:37:10;96934.46;;;7.64;82.68
56992;BME280;42885;49.754;18.636;2024-03-25T02:40:00;96934.81;;;7.47;85.34
56992;BME280;42885;49.754;18.636;2024-03-25T02:42:50;96934.53;;;7.57;86.54
56992;BME280;42885;49.754;18.636;2024-03-25T02:45:40;96938.81;;;7.45;87.46
56992;BME280;42885;49.754;18.636;2024-03-25T02:48:30;96940.90;;;7.53;89.80
56992;BME280;42885;49.754;18.636;2024-03-25T02:51:19;96939.36;;;7.24;94.92
56992;BME280;42885;49.754;18.636;2024-03-25T02:54:09;96939.36;;;7.24;94.92
56992;BME280;42885;49.754;18.636;2024-03-25T02:56:58;96947.80;;;7.28;95.36
56992;BME280;42885;49.754;18.636;2024-03-25T02:59:49;96942.67;;;7.39;95.89
56992;BME280;42885;49.754;18.636;2024-03-25T03:02:37;96945.02;;;7.24;96.35
56992;BME280;42885;49.754;18.636;2024-03-25T03:05:26;96944.34;;;7.27;96.83
56992;BME280;42885;49.754;18.636;2024-03-25T03:08:16;96944.58;;;7.11;97.77
56992;BME280;42885;49.754;18.636;2024-03-25T03:11:06;96948.91;;;7.50;96.70
56992;BME280;42885;49.754;18.636;2024-03-25T03:13:55;96941.41;;;7.45;96.30
56992;BME280;42885;49.754;18.636;2024-03-25T03:16:45;96941.11;;;7.37;97.43
56992;BME280;42885;49.754;18.636;2024-03-25T03:19:34;96941.94;;;7.50;96.68
56992;BME280;42885;49.754;18.636;2024-03-25T03:22:23;96941.94;;;7.50;96.68
56992;BME280;42885;49.754;18.636;2024-03-25T03:25:13;96931.48;;;7.44;97.67
56992;BME280;42885;49.754;18.636;2024-03-25T03:28:02;96935.89;;;7.50;98.52
56992;BME280;42885;49.754;18.636;2024-03-25T03:30:52;96934.41;;;7.40;98.59
56992;BME280;42885;49.754;18.636;2024-03-25T03:33:41;96935.50;;;7.30;99.29
56992;BME280;42885;49.754;18.636;2024-03-25T03:36:29;96931.59;;;7.30;99.79
56992;BME280;42885;49.754;18.636;2024-03-25T03:39:19;96936.94;;;7.34;99.82
56992;BME280;42885;49.754;18.636;2024-03-25T03:42:09;96939.19;;;7.33;99.34
56992;BME280;42885;49.754;18.636;2024-03-25T03:44:58;96936.45;;;7.16;100.00
56992;BME280;42885;49.754;18.636;2024-03-25T03:47:47;96936.80;;;7.30;99.65
56992;BME280;42885;49.754;18.636;2024-03-25T03:50:37;96945.02;;;7.37;100.00
56992;BME280;42885;49.754;18.636;2024-03-25T03:53:26;96942.77;;;7.38;100.00
56992;BME280;42885;49.754;18.636;2024-03-25T03:56:15;96943.94;;;7.34;100.00
56992;BME280;42885;49.754;18.636;2024-03-25T03:59:05;96941.26;;;7.54;99.76
56992;BME280;42885;49.754;18.636;2024-03-25T04:01:55;96940.73;;;7.49;99.66
56992;BME280;42885;49.754;18.636;2024-03-25T04:04:44;96944.56;;;7.37;100.00
56992;BME280;42885;49.754;18.636;2024-03-25T04:07:33;96947.13;;;7.32;100.00
56992;BME280;42885;49.754;18.636;2024-03-25T04:10:23;96945.15;;;7.22;100.00
56992;BME280;42885;49.754;18.636;2024-03-25T04:13:12;96940.05;;;7.21;100.00
56992;BME280;42885;49.754;18.636;2024-03-25T04:16:03;96940.76;;;7.23;100.00
56992;BME280;42885;49.754;18.636;2024-03-25T04:18:53;96944.13;;;7.18;100.00
56992;BME280;42885;49.754;18.636;2024-03-25T04:21:41;96943.36;;;7.23;100.00
56992;BME280;42885;49.754;18.636;2024-03-25T04:24:31;96949.87;;;7.23;100.00
56992;BME280;42885;49.754;18.636;2024-03-25T04:27:21;96950.04;;;7.14;100.00
56992;BME280;42885;49.754;18.636;2024-03-25T04:30:12;96944.03;;;7.06;100.00
56992;BME280;42885;49.754;18.636;2024-03-25T04:33:01;96939.68;;;7.20;100.00
56992;BME280;42885;49.754;18.636;2024-03-25T04:35:51;96941.12;;;7.11;100.00
56992;BME280;42885;49.754;18.636;2024-03-25T04:38:40;96938.52;;;7.11;100.00
56992;BME280;42885;49.754;18.636;2024-03-25T04:41:29;96938.47;;;7.18;100.00
56992;BME280;42885;49.754;18.636;2024-03-25T04:44:19;96941.65;;;7.29;100.00
56992;BME280;42885;49.754;18.636;2024-03-25T04:47:09;96940.18;;;7.25;100.00
56992;BME280;42885;49.754;18.636;2024-03-25T04:49:58;96944.45;;;7.13;100.00
56992;BME280;42885;49.754;18.636;2024-03-25T04:52:48;96936.84;;;7.36;100.00
56992;BME280;42885;49.754;18.636;2024-03-25T04:55:36;96945.20;;;7.28;100.00
56992;BME280;42885;49.754;18.636;2024-03-25T04:58:25;96942.41;;;7.37;100.00
56992;BME280;42885;49.754;18.636;2024-03-25T05:01:14;96955.55;;;7.35;100.00
56992;BME280;42885;49.754;18.636;2024-03-25T05:04:03;96948.92;;;7.37;100.00
56992;BME280;42885;49.754;18.636;2024-03-25T05:06:52;96955.55;;;7.35;100.00
56992;BME280;42885;49.754;18.636;2024-03-25T05:09:41;96946.52;;;7.47;100.00
56992;BME280;42885;49.754;18.636;2024-03-25T05:12:30;96950.52;;;7.45;100.00
56992;BME280;42885;49.754;18.636;2024-03-25T05:15:20;96953.43;;;7.53;100.00
56992;BME280;42885;49.754;18.636;2024-03-25T05:18:09;96959.90;;;7.48;100.00
56992;BME280;42885;49.754;18.636;2024-03-25T05:20:58;96956.97;;;7.52;100.00
56992;BME280;42885;49.754;18.636;2024-03-25T05:23:46;96952.03;;;7.55;100.00
56992;BME280;42885;49.754;18.636;2024-03-25T05:26:35;96959.48;;;7.54;100.00
56992;BME280;42885;49.754;18.636;2024-03-25T05:29:24;96957.22;;;7.68;100.00
56992;BME280;42885;49.754;18.636;2024-03-25T05:32:13;96965.89;;;7.55;100.00
56992;BME280;42885;49.754;18.636;2024-03-25T05:35:05;96968.03;;;7.75;100.00
56992;BME280;42885;49.754;18.636;2024-03-25T05:37:54;96964.44;;;8.02;100.00
56992;BME280;42885;49.754;18.636;2024-03-25T05:40:45;96964.44;;;8.02;100.00
56992;BME280;42885;49.754;18.636;2024-03-25T05:43:34;96966.80;;;7.80;100.00
56992;BME280;42885;49.754;18.636;2024-03-25T05:46:23;96970.50;;;7.89;100.00
56992;BME280;42885;49.754;18.636;2024-03-25T05:49:13;96974.84;;;7.83;99.83
56992;BME280;42885;49.754;18.636;2024-03-25T05:52:05;96972.09;;;7.79;99.91
56992;BME280;42885;49.754;18.636;2024-03-25T05:54:54;96974.93;;;7.94;100.00
56992;BME280;42885;49.754;18.636;2024-03-25T05:57:44;96975.42;;;7.99;99.84
56992;BME280;42885;49.754;18.636;2024-03-25T06:00:33;96972.47;;;8.42;97.45
56992;BME280;42885;49.754;18.636;2024-03-25T06:03:22;96976.41;;;8.23;95.66
56992;BME280;42885;49.754;18.636;2024-03-25T06:06:12;96977.71;;;8.23;95.56
56992;BME280;42885;49.754;18.636;2024-03-25T06:09:00;96982.44;;;8.23;95.72
56992;BME280;42885;49.754;18.636;2024-03-25T06:11:50;96980.63;;;8.37;94.75
56992;BME280;42885;49.754;18.636;2024-03-25T06:14:39;96983.25;;;8.43;93.31
56992;BME280;42885;49.754;18.636;2024-03-25T06:17:28;96988.19;;;8.34;93.62
56992;BME280;42885;49.754;18.636;2024-03-25T06:20:17;96992.25;;;8.38;92.58
56992;BME280;42885;49.754;18.636;2024-03-25T06:23:07;96989.42;;;8.66;92.58
56992;BME280;42885;49.754;18.636;2024-03-25T06:25:58;96985.42;;;8.49;90.46
56992;BME280;42885;49.754;18.636;2024-03-25T06:28:47;96982.05;;;8.41;90.21
56992;BME280;42885;49.754;18.636;2024-03-25T06:31:37;96988.80;;;8.57;89.79
56992;BME280;42885;49.754;18.636;2024-03-25T06:34:44;96989.92;;;8.47;88.80
56992;BME280;42885;49.754;18.636;2024-03-25T06:37:33;96984.06;;;8.56;87.86
56992;BME280;42885;49.754;18.636;2024-03-25T06:40:23;96989.21;;;8.69;87.40
56992;BME280;42885;49.754;18.636;2024-03-25T06:43:13;96983.31;;;8.78;86.71
56992;BME280;42885;49.754;18.636;2024-03-25T06:46:05;96988.44;;;8.86;85.18
56992;BME280;42885;49.754;18.636;2024-03-25T06:48:54;96988.46;;;8.97;86.20
56992;BME280;42885;49.754;18.636;2024-03-25T06:51:44;96992.83;;;8.91;84.67
56992;BME280;42885;49.754;18.636;2024-03-25T06:54:33;96994.30;;;9.06;82.71
56992;BME280;42885;49.754;18.636;2024-03-25T06:57:22;97002.00;;;8.97;84.19
56992;BME280;42885;49.754;18.636;2024-03-25T07:00:12;97002.11;;;8.95;83.64
56992;BME280;42885;49.754;18.636;2024-03-25T07:03:01;97001.01;;;8.92;84.18
56992;BME280;42885;49.754;18.636;2024-03-25T07:05:51;97010.38;;;8.89;84.68
56992;BME280;42885;49.754;18.636;2024-03-25T07:08:43;97007.00;;;8.75;87.21
56992;BME280;42885;49.754;18.636;2024-03-25T07:11:32;97017.42;;;9.00;85.56
56992;BME280;42885;49.754;18.636;2024-03-25T07:14:21;97013.25;;;8.97;87.43
56992;BME280;42885;49.754;18.636;2024-03-25T07:17:10;97006.61;;;8.93;86.92
56992;BME280;42885;49.754;18.636;2024-03-25T07:19:59;97011.60;;;9.02;84.42
56992;BME280;42885;49.754;18.636;2024-03-25T07:22:50;97010.83;;;9.24;82.61
56992;BME280;42885;49.754;18.636;2024-03-25T07:25:39;97011.17;;;9.19;83.29
56992;BME280;42885;49.754;18.636;2024-03-25T07:28:27;97013.33;;;9.26;81.29
56992;BME280;42885;49.754;18.636;2024-03-25T07:31:17;97019.86;;;9.31;81.67
56992;BME280;42885;49.754;18.636;2024-03-25T07:34:05;97029.84;;;9.26;82.12
56992;BME280;42885;49.754;18.636;2024-03-25T07:36:55;97026.37;;;9.14;80.79
56992;BME280;42885;49.754;18.636;2024-03-25T07:39:46;97024.58;;;9.20;80.41
56992;BME280;42885;49.754;18.636;2024-03-25T07:42:38;97025.76;;;9.11;78.73
56992;BME280;42885;49.754;18.636;2024-03-25T07:45:27;97037.34;;;9.01;78.88
56992;BME280;42885;49.754;18.636;2024-03-25T07:48:16;97039.07;;;9.19;78.90
56992;BME280;42885;49.754;18.636;2024-03-25T07:51:05;97038.74;;;8.93;81.44
56992;BME280;42885;49.754;18.636;2024-03-25T07:53:54;97049.70;;;9.04;83.13
56992;BME280;42885;49.754;18.636;2024-03-25T07:56:43;97047.97;;;8.92;83.62
56992;BME280;42885;49.754;18.636;2024-03-25T07:59:32;97062.24;;;8.99;85.89
56992;BME280;42885;49.754;18.636;2024-03-25T08:02:21;97063.80;;;9.02;85.33
56992;BME280;42885;49.754;18.636;2024-03-25T08:05:10;97068.59;;;9.14;85.92
56992;BME280;42885;49.754;18.636;2024-03-25T08:07:59;97061.52;;;8.91;84.14
56992;BME280;42885;49.754;18.636;2024-03-25T08:10:48;97060.08;;;9.29;82.07
56992;BME280;42885;49.754;18.636;2024-03-25T08:13:37;97060.08;;;9.29;82.07
56992;BME280;42885;49.754;18.636;2024-03-25T08:16:26;97067.56;;;9.33;80.99
56992;BME280;42885;49.754;18.636;2024-03-25T08:19:16;97068.67;;;9.48;79.99
56992;BME280;42885;49.754;18.636;2024-03-25T08:22:05;97074.19;;;9.68;77.65
56992;BME280;42885;49.754;18.636;2024-03-25T08:24:55;97075.02;;;10.08;77.50
56992;BME280;42885;49.754;18.636;2024-03-25T08:27:45;97072.42;;;9.85;79.25
56992;BME280;42885;49.754;18.636;2024-03-25T08:30:34;97080.72;;;9.79;77.99
56992;BME280;42885;49.754;18.636;2024-03-25T08:33:24;97077.64;;;9.91;76.35
56992;BME280;42885;49.754;18.636;2024-03-25T08:36:14;97072.18;;;9.77;73.21
56992;BME280;42885;49.754;18.636;2024-03-25T08:39:03;97073.96;;;10.05;71.63
56992;BME280;42885;49.754;18.636;2024-03-25T08:41:53;97082.28;;;10.16;72.61
56992;BME280;42885;49.754;18.636;2024-03-25T08:44:42;97084.27;;;10.58;72.24
56992;BME280;42885;49.754;18.636;2024-03-25T08:47:31;97090.70;;;10.31;71.06
56992;BME280;42885;49.754;18.636;2024-03-25T08:50:21;97091.53;;;10.37;69.02
56992;BME280;42885;49.754;18.636;2024-03-25T08:53:09;97089.17;;;10.95;65.46
56992;BME280;42885;49.754;18.636;2024-03-25T08:55:58;97090.34;;;11.03;64.88
56992;BME280;42885;49.754;18.636;2024-03-25T08:58:47;97094.12;;;11.37;65.14
56992;BME280;42885;49.754;18.636;2024-03-25T09:01:37;97095.81;;;10.99;65.80
56992;BME280;42885;49.754;18.636;2024-03-25T09:04:26;97105.44;;;11.05;65.53
56992;BME280;42885;49.754;18.636;2024-03-25T09:07:15;97095.31;;;11.06;64.81
56992;BME280;42885;49.754;18.636;2024-03-25T09:10:04;97095.97;;;10.42;66.05
56992;BME280;42885;49.754;18.636;2024-03-25T09:13:11;97099.61;;;10.68;66.38
56992;BME280;42885;49.754;18.636;2024-03-25T09:15:59;97100.09;;;10.33;67.81
56992;BME280;42885;49.754;18.636;2024-03-25T09:18:49;97098.45;;;10.21;68.35
56992;BME280;42885;49.754;18.636;2024-03-25T09:21:37;97107.13;;;10.50;66.81
56992;BME280;42885;49.754;18.636;2024-03-25T09:24:27;97104.95;;;11.11;67.26
56992;BME280;42885;49.754;18.636;2024-03-25T09:27:15;97099.41;;;10.93;65.55
56992;BME280;42885;49.754;18.636;2024-03-25T09:30:05;97122.13;;;10.98;65.65
56992;BME280;42885;49.754;18.636;2024-03-25T09:32:55;97106.32;;;11.26;64.42
56992;BME280;42885;49.754;18.636;2024-03-25T09:35:45;97108.59;;;11.25;64.01
56992;BME280;42885;49.754;18.636;2024-03-25T09:38:35;97107.06;;;11.65;63.82
56992;BME280;42885;49.754;18.636;2024-03-25T09:41:26;97093.11;;;11.22;62.20
56992;BME280;42885;49.754;18.636;2024-03-25T09:44:19;97096.50;;;11.34;61.97
56992;BME280;42885;49.754;18.636;2024-03-25T09:47:12;97086.80;;;11.46;62.74
56992;BME280;42885;49.754;18.636;2024-03-25T09:50:02;97084.10;;;11.94;60.29
56992;BME280;42885;49.754;18.636;2024-03-25T09:52:53;97083.76;;;11.56;61.35
56992;BME280;42885;49.754;18.636;2024-03-25T09:55:43;97097.18;;;11.15;61.55
56992;BME280;42885;49.754;18.636;2024-03-25T09:58:33;97085.44;;;11.73;60.19
56992;BME280;42885;49.754;18.636;2024-03-25T10:01:23;97101.58;;;12.05;58.10
56992;BME280;42885;49.754;18.636;2024-03-25T10:04:12;97105.36;;;12.53;56.69
56992;BME280;42885;49.754;18.636;2024-03-25T10:07:02;97100.55;;;11.06;61.43
56992;BME280;42885;49.754;18.636;2024-03-25T10:09:51;97106.86;;;11.03;64.31
56992;BME280;42885;49.754;18.636;2024-03-25T10:12:41;97110.48;;;10.91;64.80
56992;BME280;42885;49.754;18.636;2024-03-25T10:15:30;97121.98;;;10.99;64.86
56992;BME280;42885;49.754;18.636;2024-03-25T10:18:20;97128.23;;;11.20;64.13
56992;BME280;42885;49.754;18.636;2024-03-25T10:21:12;97111.95;;;11.43;64.34
56992;BME280;42885;49.754;18.636;2024-03-25T10:24:04;97115.11;;;11.31;65.00
56992;BME280;42885;49.754;18.636;2024-03-25T10:26:51;97118.50;;;10.78;66.13
56992;BME280;42885;49.754;18.636;2024-03-25T10:29:42;97121.36;;;10.40;68.96
56992;BME280;42885;49.754;18.636;2024-03-25T10:32:31;97130.06;;;10.35;72.24
56992;BME280;42885;49.754;18.636;2024-03-25T10:35:20;97124.48;;;10.34;70.57
56992;BME280;42885;49.754;18.636;2024-03-25T10:38:11;97128.72;;;10.75;69.06
56992;BME280;42885;49.754;18.636;2024-03-25T10:41:02;97125.75;;;11.45;65.57
56992;BME280;42885;49.754;18.636;2024-03-25T10:43:54;97124.37;;;11.62;63.21
56992;BME280;42885;49.754;18.636;2024-03-25T10:46:44;97113.50;;;11.46;62.29
56992;BME280;42885;49.754;18.636;2024-03-25T10:49:43;97119.33;;;12.02;62.18
56992;BME280;42885;49.754;18.636;2024-03-25T10:52:32;97125.52;;;12.06;60.61
56992;BME280;42885;49.754;18.636;2024-03-25T10:55:22;97119.64;;;12.14;58.11
56992;BME280;42885;49.754;18.636;2024-03-25T10:58:12;97110.89;;;11.98;57.70
56992;BME280;42885;49.754;18.636;2024-03-25T11:01:01;97107.66;;;12.37;57.55
56992;BME280;42885;49.754;18.636;2024-03-25T11:03:50;97102.31;;;12.33;54.67
56992;BME280;42885;49.754;18.636;2024-03-25T11:06:40;97101.45;;;13.48;53.82
56992;BME280;42885;49.754;18.636;2024-03-25T11:09:30;97096.70;;;14.19;50.45
56992;BME280;42885;49.754;18.636;2024-03-25T11:12:19;97090.77;;;15.23;49.45
56992;BME280;42885;49.754;18.636;2024-03-25T11:15:09;97088.16;;;14.07;48.80
56992;BME280;42885;49.754;18.636;2024-03-25T11:17:59;97098.11;;;13.56;50.28
56992;BME280;42885;49.754;18.636;2024-03-25T11:20:48;97088.80;;;14.47;48.88
56992;BME280;42885;49.754;18.636;2024-03-25T11:23:42;97086.91;;;14.53;46.67
56992;BME280;42885;49.754;18.636;2024-03-25T11:26:32;97092.50;;;13.65;49.05
56992;BME280;42885;49.754;18.636;2024-03-25T11:29:22;97092.42;;;13.70;48.07
56992;BME280;42885;49.754;18.636;2024-03-25T11:32:11;97097.49;;;13.18;49.01
56992;BME280;42885;49.754;18.636;2024-03-25T11:35:01;97101.67;;;12.86;50.21
56992;BME280;42885;49.754;18.636;2024-03-25T11:37:50;97113.86;;;12.61;52.24
56992;BME280;42885;49.754;18.636;2024-03-25T11:40:42;97134.23;;;11.05;60.28
56992;BME280;42885;49.754;18.636;2024-03-25T11:43:33;97143.15;;;10.64;63.66
56992;BME280;42885;49.754;18.636;2024-03-25T11:46:26;97145.95;;;9.98;69.84
56992;BME280;42885;49.754;18.636;2024-03-25T11:49:16;97192.08;;;9.33;70.60
56992;BME280;42885;49.754;18.636;2024-03-25T11:52:07;97199.20;;;8.56;76.12
56992;BME280;42885;49.754;18.636;2024-03-25T11:54:55;97204.91;;;8.48;77.28
56992;BME280;42885;49.754;18.636;2024-03-25T11:57:44;97217.67;;;8.46;77.33
56992;BME280;42885;49.754;18.636;2024-03-25T12:00:33;97215.66;;;8.31;81.13
56992;BME280;42885;49.754;18.636;2024-03-25T12:03:23;97214.36;;;8.18;83.54
56992;BME280;42885;49.754;18.636;2024-03-25T12:06:13;97202.17;;;8.18;84.39
56992;BME280;42885;49.754;18.636;2024-03-25T12:09:03;97192.14;;;8.38;82.56
56992;BME280;42885;49.754;18.636;2024-03-25T12:12:11;97166.70;;;8.92;78.55
56992;BME280;42885;49.754;18.636;2024-03-25T12:15:00;97157.47;;;9.95;75.45
56992;BME280;42885;49.754;18.636;2024-03-25T12:17:54;97153.26;;;10.45;74.18
56992;BME280;42885;49.754;18.636;2024-03-25T12:20:45;97152.42;;;11.72;70.59
56992;BME280;42885;49.754;18.636;2024-03-25T12:23:34;97153.64;;;11.02;72.93
56992;BME280;42885;49.754;18.636;2024-03-25T12:26:24;97150.61;;;11.24;74.62
56992;BME280;42885;49.754;18.636;2024-03-25T12:29:13;97147.64;;;11.50;74.18
56992;BME280;42885;49.754;18.636;2024-03-25T12:32:03;97147.58;;;12.25;68.68
56992;BME280;42885;49.754;18.636;2024-03-25T12:34:53;97146.27;;;12.25;64.25
56992;BME280;42885;49.754;18.636;2024-03-25T12:37:44;97149.02;;;12.02;63.12
56992;BME280;42885;49.754;18.636;2024-03-25T12:40:33;97155.12;;;11.54;64.92
56992;BME280;42885;49.754;18.636;2024-03-25T12:43:22;97155.88;;;11.45;67.03
56992;BME280;42885;49.754;18.636;2024-03-25T12:46:12;97160.76;;;11.17;68.40
56992;BME280;42885;49.754;18.636;2024-03-25T12:49:01;97162.91;;;11.12;69.53
56992;BME280;42885;49.754;18.636;2024-03-25T12:51:50;97177.94;;;11.04;70.42
56992;BME280;42885;49.754;18.636;2024-03-25T12:54:40;97169.75;;;10.35;68.40
56992;BME280;42885;49.754;18.636;2024-03-25T12:57:29;97174.95;;;10.06;71.44
56992;BME280;42885;49.754;18.636;2024-03-25T13:00:18;97185.65;;;9.97;73.56
56992;BME280;42885;49.754;18.636;2024-03-25T13:03:08;97209.39;;;10.00;72.28
56992;BME280;42885;49.754;18.636;2024-03-25T13:05:58;97183.49;;;9.97;70.97
56992;BME280;42885;49.754;18.636;2024-03-25T13:08:48;97169.12;;;10.02;68.70
56992;BME280;42885;49.754;18.636;2024-03-25T13:11:38;97160.50;;;10.48;66.95
56992;BME280;42885;49.754;18.636;2024-03-25T13:14:27;97166.29;;;10.85;66.12
56992;BME280;42885;49.754;18.636;2024-03-25T13:17:17;97154.59;;;11.12;65.81
56992;BME280;42885;49.754;18.636;2024-03-25T13:20:07;97156.49;;;11.43;66.47
56992;BME280;42885;49.754;18.636;2024-03-25T13:22:57;97155.23;;;11.80;64.88
56992;BME280;42885;49.754;18.636;2024-03-25T13:25:46;97158.45;;;11.78;64.09
56992;BME280;42885;49.754;18.636;2024-03-25T13:28:36;97158.44;;;11.62;63.26
56992;BME280;42885;49.754;18.636;2024-03-25T13:31:25;97159.75;;;11.56;63.41
56992;BME280;42885;49.754;18.636;2024-03-25T13:34:14;97157.33;;;11.65;62.58
56992;BME280;42885;49.754;18.636;2024-03-25T13:37:03;97159.48;;;11.38;62.94
56992;BME280;42885;49.754;18.636;2024-03-25T13:39:52;97165.87;;;11.73;64.87
56992;BME280;42885;49.754;18.636;2024-03-25T13:42:41;97172.42;;;11.13;63.56
56992;BME280;42885;49.754;18.636;2024-03-25T13:45:30;97172.20;;;11.05;63.62
56992;BME280;42885;49.754;18.636;2024-03-25T13:48:19;97169.88;;;11.28;65.71
56992;BME280;42885;49.754;18.636;2024-03-25T13:51:09;97174.16;;;11.29;64.05
56992;BME280;42885;49.754;18.636;2024-03-25T13:53:57;97163.27;;;12.15;63.37
56992;BME280;42885;49.754;18.636;2024-03-25T13:56:46;97153.52;;;16.01;53.63
56992;BME280;42885;49.754;18.636;2024-03-25T13:59:36;97159.81;;;12.97;59.23
56992;BME280;42885;49.754;18.636;2024-03-25T14:02:25;97165.53;;;11.93;62.38
56992;BME280;42885;49.754;18.636;2024-03-25T14:05:15;97172.36;;;11.84;67.51
56992;BME280;42885;49.754;18.636;2024-03-25T14:08:04;97178.29;;;11.65;69.94
56992;BME280;42885;49.754;18.636;2024-03-25T14:11:03;97186.73;;;11.09;68.99
56992;BME280;42885;49.754;18.636;2024-03-25T14:13:47;97194.34;;;11.06;71.28
56992;BME280;42885;49.754;18.636;2024-03-25T14:16:36;97199.96;;;10.39;72.09
56992;BME280;42885;49.754;18.636;2024-03-25T14:19:25;97197.95;;;10.65;73.08
56992;BME280;42885;49.754;18.636;2024-03-25T14:22:15;97196.64;;;10.82;71.61
56992;BME280;42885;49.754;18.636;2024-03-25T14:25:05;97199.09;;;11.07;71.36
56992;BME280;42885;49.754;18.636;2024-03-25T14:27:54;97199.34;;;11.04;70.35
56992;BME280;42885;49.754;18.636;2024-03-25T14:30:45;97198.80;;;11.27;66.76
56992;BME280;42885;49.754;18.636;2024-03-25T14:33:34;97204.61;;;11.42;65.40
56992;BME280;42885;49.754;18.636;2024-03-25T14:36:23;97197.89;;;11.55;65.79
56992;BME280;42885;49.754;18.636;2024-03-25T14:39:12;97197.89;;;11.55;65.53
56992;BME280;42885;49.754;18.636;2024-03-25T14:42:02;97201.58;;;11.52;65.08
56992;BME280;42885;49.754;18.636;2024-03-25T14:44:52;97206.36;;;11.47;65.11
56992;BME280;42885;49.754;18.636;2024-03-25T14:47:41;97232.69;;;11.40;69.41
56992;BME280;42885;49.754;18.636;2024-03-25T14:50:30;97238.69;;;11.25;68.56
56992;BME280;42885;49.754;18.636;2024-03-25T14:53:19;97238.15;;;11.04;71.34